• Join FlightAware (Why Join?)
  • Login
  • US Flag 
 
04:07AM EST


 

Airport Tracker/Info


-or-


 

Live Flight TrackerFlight Track Log ✈ N102WY ✈ 10-Sep-2013 ✈ KBPI - KLAR

Flight Track Log - Related Links

Times and Time Zones

All times are in EDT time to prevent confusion due to time zone crossing. See the N102WY flight status page for this flight to view local times or setup timezone preferences in your user account.

Time Position Orientation Groundspeed Altitude Reporting Facility
EDT Latitude Longitude Course Direction KTS MPH feet Rate Location/Type
05:32PM 42.5356 -109.9886 110° East 219 252 11,500  Level Salt Lake Center
05:33PM 42.5039 -109.8678 110° East 274 315 12,300 2,160 Climbing Salt Lake Center
05:34PM 42.4794 -109.7656 108° East 296 341 16,000 3,480 Climbing Salt Lake Center
05:35PM 42.4511 -109.6631 111° Southeast 268 308 19,600 2,700 Climbing Salt Lake Center
05:36PM 42.4267 -109.5681 109° East 274 315 21,700 2,100 Climbing Salt Lake Center
05:37PM 42.3931 -109.4431 110° East 308 354 24,000 1,560 Climbing Salt Lake Center
05:38PM 42.3979 -109.4147 110° East  Level Estimated
05:38PM 42.3608 -109.3228 110° East 344 396 25,000  Level Salt Lake Center
05:39PM 42.3183 -109.1644 110° East 393 452 25,000 540 Level Salt Lake Center
05:40PM 42.2811 -109.0211 109° East 416 479 26,200 2,220 Climbing Salt Lake Center
05:41PM 42.2414 -108.8778 110° East 380 437 29,600 2,940 Climbing Salt Lake Center
05:42PM 42.2161 -108.7811 109° East 311 358 32,300 1,620 Climbing Salt Lake Center
05:43PM 42.1894 -108.6836 110° East 292 336 33,000 300 Climbing Salt Lake Center
05:44PM 42.1517 -108.5436 110° East 348 400 33,000  Level Salt Lake Center
05:45PM 42.1158 -108.4106 110° East 383 441 33,000 1,200 Level Salt Lake Center
05:47PM 42.0697 -108.2489 111° Southeast 406 467 35,500 1,920 Climbing Salt Lake Center
05:48PM 42.0350 -108.1286 111° Southeast 374 430 37,000 720 Climbing Salt Lake Center
05:49PM 41.9933 -107.9769 110° East 383 441 37,000  Level Salt Lake Center
05:50PM 41.9564 -107.8489 111° Southeast 384 442 37,000  Level Salt Lake Center
05:51PM 41.9133 -107.7014 111° Southeast 380 437 37,000  Level Salt Lake Center
05:52PM 41.8767 -107.5750 111° Southeast 380 437 37,000  Level Salt Lake Center
05:53PM 41.8417 -107.4475 110° East 380 437 37,000  Level Salt Lake Center
05:54PM 41.7986 -107.3008 111° Southeast 380 437 37,000  Level Salt Lake Center
05:55PM 41.7619 -107.1731 111° Southeast 383 441 37,000  Level Salt Lake Center
05:56PM 41.7181 -107.0244 112° Southeast 384 442 37,000 -600 Level Salt Lake Center
05:57PM 41.6817 -106.8983 111° Southeast 382 440 35,800 -1,680 Descending Salt Lake Center
05:58PM 41.6367 -106.7464 112° Southeast 390 449 33,500 -1,380 Descending Salt Lake Center
05:59PM 41.5978 -106.6206 112° Southeast 389 448 33,000 -1,680 Descending Salt Lake Center
06:00PM 41.5503 -106.4681 113° Southeast 392 451 30,100 -3,000 Descending Salt Lake Center
06:01PM 41.5106 -106.3453 113° Southeast 382 440 26,800 -3,840 Descending Salt Lake Center
06:02PM 41.4528 -106.1703 114° Southeast 366 421 20,900 -4,380 Descending Denver Center
06:03PM 41.4219 -106.0678 112° Southeast 325 374 16,400 -4,620 Descending Denver Center
06:04PM 41.4497 -105.9525 72° East 304 350 11,400 -3,120 Descending Denver Center
06:05PM 41.4817 -105.8469 68° East 299 344 10,000 -1,380 Descending Denver Center
06:07PM 41.3992 -105.7725 146° Southeast  Level FlightAware Approximate
06:14PM 41.3121 -105.6750 90° East  Level Estimated
06:15PM 41.3121 -105.6750 90° East  Level Estimated
06:16PM 41.3121 -105.6750 90° East  Level Estimated
06:17PM 41.3121 -105.6750 90° East  Level Estimated
06:18PM 41.3121 -105.6750 90° East  Level Estimated